createdAt,value
2023-04-15T00:02:00.035Z,3.30
2023-04-15T00:04:28.157Z,4.78
2023-04-15T00:06:55.927Z,4.00
2023-04-15T00:09:24.000Z,4.30
2023-04-15T00:11:51.600Z,3.92
2023-04-15T00:14:19.289Z,3.88
2023-04-15T00:16:50.120Z,3.70
2023-04-15T00:19:17.707Z,4.40
2023-04-15T00:21:45.462Z,4.28
2023-04-15T00:24:13.416Z,3.78
2023-04-15T00:26:41.273Z,3.97
2023-04-15T00:29:08.947Z,3.75
2023-04-15T00:31:36.622Z,4.05
2023-04-15T00:34:05.870Z,3.95
2023-04-15T00:36:35.144Z,4.55
2023-04-15T00:39:03.810Z,3.65
2023-04-15T00:41:31.809Z,4.32
2023-04-15T00:44:00.471Z,4.82
2023-04-15T00:46:28.209Z,4.80
2023-04-15T00:48:56.273Z,4.85
2023-04-15T00:51:53.375Z,4.40
2023-04-15T00:54:22.788Z,4.60
2023-04-15T00:56:50.449Z,4.40
2023-04-15T00:59:18.716Z,5.07
2023-04-15T01:01:46.415Z,4.15
2023-04-15T01:04:14.335Z,5.15
2023-04-15T01:06:42.474Z,4.68
2023-04-15T01:09:10.130Z,4.68
2023-04-15T01:11:39.067Z,3.95
2023-04-15T01:14:07.450Z,5.68
2023-04-15T01:16:35.546Z,4.38
2023-04-15T01:19:03.446Z,4.57
2023-04-15T01:21:31.164Z,3.90
2023-04-15T01:23:58.819Z,4.80
2023-04-15T01:26:28.321Z,4.68
2023-04-15T01:28:56.490Z,4.55
2023-04-15T01:31:24.489Z,4.97
2023-04-15T01:33:52.044Z,4.75
2023-04-15T01:36:19.996Z,3.97
2023-04-15T01:38:48.065Z,4.68
2023-04-15T01:41:15.980Z,4.13
2023-04-15T01:43:44.875Z,4.72
2023-04-15T01:46:12.805Z,4.47
2023-04-15T01:48:40.409Z,4.47
2023-04-15T01:51:08.511Z,4.47
2023-04-15T01:53:36.082Z,4.63
2023-04-15T01:56:04.307Z,4.65
2023-04-15T01:58:32.124Z,5.60
2023-04-15T02:01:01.863Z,4.40
2023-04-15T02:03:30.313Z,4.72
2023-04-15T02:05:58.215Z,4.13
2023-04-15T02:08:25.837Z,5.30
2023-04-15T02:10:53.573Z,4.57
2023-04-15T02:13:21.497Z,5.40
2023-04-15T02:15:49.677Z,5.40
2023-04-15T02:18:18.870Z,4.90
2023-04-15T02:20:47.211Z,5.22
2023-04-15T02:23:15.900Z,4.60
2023-04-15T02:25:43.676Z,5.00
2023-04-15T02:28:21.689Z,5.45
2023-04-15T02:30:51.016Z,5.40
2023-04-15T02:33:20.497Z,5.85
2023-04-15T02:35:48.315Z,5.82
2023-04-15T02:38:17.864Z,5.78
2023-04-15T02:40:45.500Z,5.72
2023-04-15T02:43:13.203Z,5.18
2023-04-15T02:45:41.315Z,6.00
2023-04-15T02:48:09.006Z,7.38
2023-04-15T02:50:39.901Z,6.03
2023-04-15T02:53:07.616Z,5.47
2023-04-15T02:55:35.343Z,7.10
2023-04-15T02:58:03.021Z,5.68
2023-04-15T03:00:30.595Z,5.70
2023-04-15T03:02:59.853Z,5.78
2023-04-15T03:05:27.943Z,6.05
2023-04-15T03:07:56.919Z,5.50
2023-04-15T03:10:24.473Z,5.20
2023-04-15T03:12:52.111Z,5.60
2023-04-15T03:15:19.859Z,5.72
2023-04-15T03:17:49.495Z,5.80
2023-04-15T03:20:17.689Z,6.10
2023-04-15T03:22:45.449Z,6.07
2023-04-15T03:25:14.704Z,5.80
2023-04-15T03:27:42.844Z,5.65
2023-04-15T03:30:10.882Z,5.53
2023-04-15T03:32:38.561Z,6.00
2023-04-15T03:35:06.575Z,5.50
2023-04-15T03:37:34.159Z,5.38
2023-04-15T03:40:01.998Z,6.50
2023-04-15T03:42:31.244Z,5.18
2023-04-15T03:44:58.878Z,5.10
2023-04-15T03:47:26.525Z,5.50
2023-04-15T03:49:54.175Z,5.70
2023-04-15T03:52:21.786Z,5.28
2023-04-15T03:54:49.397Z,5.55
2023-04-15T03:57:17.112Z,5.80
2023-04-15T03:59:46.303Z,5.60
2023-04-15T04:02:14.022Z,4.93
2023-04-15T04:04:41.725Z,5.68
2023-04-15T04:07:10.633Z,6.60
2023-04-15T04:09:39.342Z,5.55
2023-04-15T04:12:07.136Z,6.05
2023-04-15T04:14:37.497Z,6.38
2023-04-15T04:17:16.830Z,5.82
2023-04-15T04:19:50.625Z,6.07
2023-04-15T04:22:18.216Z,7.38
2023-04-15T04:24:45.812Z,5.80
2023-04-15T04:27:13.502Z,6.50
2023-04-15T04:29:47.961Z,6.40
2023-04-15T04:32:17.196Z,6.18
2023-04-15T04:34:44.928Z,6.78
2023-04-15T04:37:12.859Z,6.18
2023-04-15T04:39:40.740Z,6.43
2023-04-15T04:42:08.546Z,6.38
2023-04-15T04:44:36.270Z,6.40
2023-04-15T04:47:04.116Z,8.73
2023-04-15T04:49:33.156Z,6.80
2023-04-15T04:52:01.796Z,6.53
2023-04-15T04:54:30.758Z,7.15
2023-04-15T04:56:58.894Z,6.45
2023-04-15T04:59:26.829Z,7.00
2023-04-15T05:01:59.527Z,6.30
2023-04-15T05:04:27.431Z,6.88
2023-04-15T05:06:56.665Z,7.40
2023-04-15T05:09:24.393Z,6.32
2023-04-15T05:11:52.091Z,8.15
2023-04-15T05:14:20.503Z,7.43
2023-04-15T05:16:49.380Z,6.07
2023-04-15T05:19:17.021Z,6.90
2023-04-15T05:21:46.778Z,7.78
2023-04-15T05:24:15.764Z,9.52
2023-04-15T05:26:44.051Z,6.60
2023-04-15T05:29:11.989Z,6.45
2023-04-15T05:31:51.536Z,7.38
2023-04-15T05:34:29.755Z,7.00
2023-04-15T05:40:01.533Z,6.13
2023-04-15T05:42:29.417Z,6.40
2023-04-15T05:44:57.326Z,6.65
2023-04-15T05:47:25.187Z,6.32
2023-04-15T05:49:53.276Z,6.78
2023-04-15T05:52:24.224Z,6.13
2023-04-15T05:54:52.091Z,5.70
2023-04-15T05:57:21.716Z,6.15
2023-04-15T05:59:51.659Z,6.93
2023-04-15T06:02:19.600Z,5.82
2023-04-15T06:04:47.552Z,5.28
2023-04-15T06:07:15.674Z,5.93
2023-04-15T06:09:43.590Z,5.88
2023-04-15T06:12:12.386Z,5.20
2023-04-15T06:14:41.586Z,5.40
2023-04-15T06:17:22.453Z,5.85
2023-04-15T06:19:56.364Z,5.47
2023-04-15T06:22:27.051Z,5.60
2023-04-15T06:24:59.687Z,5.95
2023-04-15T06:27:27.814Z,4.55
2023-04-15T06:29:56.731Z,5.75
2023-04-15T06:32:24.241Z,7.80
2023-04-15T06:34:51.843Z,5.70
2023-04-15T06:37:19.381Z,4.47
2023-04-15T06:39:49.707Z,4.50
2023-04-15T06:42:17.369Z,5.32
2023-04-15T06:44:44.987Z,4.68
2023-04-15T06:47:14.806Z,4.47
2023-04-15T06:49:43.264Z,5.28
2023-04-15T06:52:15.351Z,5.88
2023-04-15T06:54:48.430Z,4.78
2023-04-15T06:57:16.470Z,4.53
2023-04-15T06:59:44.698Z,4.53
2023-04-15T07:02:14.782Z,5.13
2023-04-15T07:04:52.922Z,4.20
2023-04-15T07:07:21.524Z,4.38
2023-04-15T07:09:49.166Z,4.45
2023-04-15T07:12:16.939Z,6.68
2023-04-15T07:14:45.754Z,5.80
2023-04-15T07:17:17.955Z,4.93
2023-04-15T07:19:50.165Z,4.32
2023-04-15T07:22:18.240Z,4.07
2023-04-15T07:24:45.923Z,4.43
2023-04-15T07:27:13.480Z,4.78
2023-04-15T07:29:41.432Z,4.47
2023-04-15T07:32:10.525Z,4.45
2023-04-15T07:34:39.859Z,4.10
2023-04-15T07:37:10.658Z,4.63
2023-04-15T07:39:39.286Z,4.65
2023-04-15T07:42:08.866Z,4.22
2023-04-15T07:44:37.170Z,4.43
2023-04-15T07:47:04.805Z,4.45
2023-04-15T07:49:34.700Z,4.20
2023-04-15T07:52:02.286Z,5.03
2023-04-15T07:54:31.252Z,4.65
2023-04-15T07:56:59.047Z,4.35
2023-04-15T07:59:27.679Z,4.55
2023-04-15T08:01:55.364Z,4.43
2023-04-15T08:04:23.139Z,4.57
2023-04-15T08:06:50.723Z,4.10
2023-04-15T08:09:18.283Z,4.30
2023-04-15T08:11:49.557Z,3.60
2023-04-15T08:14:17.495Z,3.72
2023-04-15T08:16:45.080Z,3.65
2023-04-15T08:19:12.705Z,4.30
2023-04-15T08:21:40.671Z,4.20
2023-04-15T08:24:08.237Z,4.05
2023-04-15T08:26:35.927Z,4.30
2023-04-15T08:29:05.131Z,4.38
2023-04-15T08:31:33.486Z,3.95
2023-04-15T08:34:01.213Z,4.60
2023-04-15T08:36:34.156Z,4.22
2023-04-15T08:39:03.459Z,4.22
2023-04-15T08:41:34.690Z,4.40
2023-04-15T08:44:03.174Z,4.25
2023-04-15T08:46:34.173Z,4.20
2023-04-15T08:49:04.844Z,3.83
2023-04-15T08:51:33.841Z,4.20
2023-04-15T08:54:05.110Z,4.35
2023-04-15T08:56:33.680Z,4.05
2023-04-15T08:59:01.589Z,4.63
2023-04-15T09:01:32.804Z,4.20
2023-04-15T09:04:02.575Z,4.70
2023-04-15T09:06:33.083Z,4.30
2023-04-15T09:09:01.945Z,4.28
2023-04-15T09:11:31.323Z,4.28
2023-04-15T09:13:58.998Z,4.38
2023-04-15T09:16:27.643Z,4.00
2023-04-15T09:18:55.461Z,4.22
2023-04-15T09:21:35.781Z,4.38
2023-04-15T09:24:07.541Z,3.85
2023-04-15T09:26:36.174Z,3.22
2023-04-15T09:29:05.131Z,3.42
2023-04-15T09:31:33.153Z,4.05
2023-04-15T09:34:01.483Z,3.65
2023-04-15T09:36:30.488Z,3.85
2023-04-15T09:39:02.133Z,3.72
2023-04-15T09:41:29.946Z,3.65
2023-04-15T09:44:00.213Z,4.45
2023-04-15T09:46:44.148Z,3.80
2023-04-15T09:49:12.387Z,3.80
2023-04-15T09:51:40.199Z,3.88
2023-04-15T09:54:09.769Z,4.28
2023-04-15T09:56:38.519Z,4.05
2023-04-15T09:59:11.712Z,3.90
2023-04-15T10:01:39.510Z,3.28
2023-04-15T10:04:07.618Z,4.72
2023-04-15T10:06:35.710Z,3.45
2023-04-15T10:09:23.833Z,4.15
2023-04-15T10:11:57.099Z,4.18
2023-04-15T10:14:32.472Z,4.03
2023-04-15T10:17:02.376Z,3.90
2023-04-15T10:19:37.441Z,4.03
2023-04-15T10:22:05.114Z,3.92
2023-04-15T10:24:35.000Z,3.97
2023-04-15T10:27:04.770Z,4.28
2023-04-15T10:29:33.054Z,4.03
2023-04-15T10:32:01.250Z,3.88
2023-04-15T10:34:29.396Z,4.00
2023-04-15T10:36:57.543Z,4.55
2023-04-15T10:39:44.493Z,4.20
2023-04-15T10:42:14.204Z,4.22
2023-04-15T10:44:43.276Z,4.05
2023-04-15T10:47:14.516Z,4.07
2023-04-15T10:49:46.248Z,4.13
2023-04-15T10:52:13.805Z,4.53
2023-04-15T10:54:41.505Z,4.60
2023-04-15T10:57:09.825Z,4.22
2023-04-15T10:59:41.364Z,4.30
2023-04-15T11:02:09.166Z,5.03
2023-04-15T11:04:56.297Z,4.20
2023-04-15T11:07:37.744Z,4.15
2023-04-15T11:10:05.904Z,5.15
2023-04-15T11:12:37.138Z,5.03
2023-04-15T11:15:23.604Z,4.65
2023-04-15T11:17:52.570Z,4.90
2023-04-15T11:20:20.528Z,4.60
2023-04-15T11:22:48.905Z,4.38
2023-04-15T11:25:23.537Z,4.15
2023-04-15T11:27:51.599Z,4.45
2023-04-15T11:30:21.038Z,4.03
2023-04-15T11:32:48.643Z,4.25
2023-04-15T11:35:20.964Z,3.88
2023-04-15T11:37:51.296Z,4.55
2023-04-15T11:40:25.584Z,4.15
2023-04-15T11:45:27.426Z,4.40
2023-04-15T11:48:12.887Z,3.92
2023-04-15T11:50:42.167Z,4.22
2023-04-15T11:53:10.425Z,4.45
2023-04-15T11:55:45.208Z,3.92
2023-04-15T11:58:16.378Z,4.30
2023-04-15T12:00:50.154Z,4.28
2023-04-15T12:03:37.479Z,4.55
2023-04-15T12:06:11.781Z,4.03
2023-04-15T12:08:58.355Z,5.00
2023-04-15T12:11:33.170Z,5.28
2023-04-15T12:14:04.037Z,4.68
2023-04-15T12:16:32.077Z,4.60
2023-04-15T12:19:01.028Z,4.35
2023-04-15T12:21:34.883Z,4.78
2023-04-15T12:24:03.778Z,4.78
2023-04-15T12:26:32.773Z,4.90
2023-04-15T12:29:02.227Z,3.97
2023-04-15T12:31:29.992Z,4.72
2023-04-15T12:33:58.039Z,4.35
2023-04-15T12:36:25.671Z,4.55
2023-04-15T12:38:54.587Z,5.25
2023-04-15T12:41:22.477Z,4.50
2023-04-15T12:43:49.974Z,4.30
2023-04-15T12:46:19.142Z,4.53
2023-04-15T12:48:47.424Z,4.47
2023-04-15T12:51:14.894Z,4.55
2023-04-15T12:53:42.686Z,5.18
2023-04-15T12:56:13.320Z,4.72
2023-04-15T12:58:41.134Z,4.50
2023-04-15T13:01:08.715Z,5.03
2023-04-15T13:03:36.444Z,4.07
2023-04-15T13:06:04.881Z,4.70
2023-04-15T13:08:32.498Z,4.78
2023-04-15T13:11:00.002Z,5.00
2023-04-15T13:13:32.899Z,4.65
2023-04-15T13:16:00.872Z,4.00
2023-04-15T13:18:28.437Z,5.10
2023-04-15T13:20:56.539Z,4.82
2023-04-15T13:23:24.089Z,4.75
2023-04-15T13:25:52.114Z,4.63
2023-04-15T13:28:19.724Z,4.60
2023-04-15T13:30:49.418Z,5.50
2023-04-15T13:33:17.927Z,5.20
2023-04-15T13:35:45.668Z,4.70
2023-04-15T13:38:13.279Z,4.82
2023-04-15T13:40:40.926Z,4.05
2023-04-15T13:43:08.667Z,4.53
2023-04-15T13:45:36.337Z,4.50
2023-04-15T13:48:05.598Z,5.22
2023-04-15T13:50:33.190Z,4.82
2023-04-15T14:00:07.076Z,4.78
2023-04-15T14:05:42.856Z,4.38
2023-04-15T14:11:21.087Z,5.00
2023-04-15T14:14:03.659Z,4.75
2023-04-15T14:16:54.012Z,4.40
2023-04-15T14:19:39.096Z,4.88
2023-04-15T14:22:35.762Z,4.97
2023-04-15T14:25:32.838Z,5.70
2023-04-15T14:39:01.780Z,5.90
2023-04-15T14:48:56.376Z,6.25
2023-04-15T14:58:16.540Z,5.45
2023-04-15T15:00:45.092Z,4.95
2023-04-15T15:03:13.647Z,4.45
2023-04-15T15:05:47.667Z,5.03
2023-04-15T15:08:15.405Z,4.32
2023-04-15T15:10:48.920Z,5.10
2023-04-15T15:15:52.209Z,6.13
2023-04-15T15:18:21.638Z,5.45
2023-04-15T15:20:52.315Z,5.07
2023-04-15T15:23:22.897Z,6.13
2023-04-15T15:25:50.514Z,5.68
2023-04-15T15:28:18.036Z,5.90
2023-04-15T15:30:55.248Z,5.80
2023-04-15T15:33:24.524Z,5.78
2023-04-15T15:35:55.249Z,5.43
2023-04-15T15:38:23.335Z,5.72
2023-04-15T15:40:52.215Z,5.35
2023-04-15T15:43:19.805Z,5.63
2023-04-15T15:45:48.104Z,5.32
2023-04-15T15:48:15.872Z,5.25
2023-04-15T15:50:45.075Z,5.75
2023-04-15T15:53:24.197Z,5.45
2023-04-15T15:55:53.750Z,5.53
2023-04-15T15:58:21.642Z,5.40
2023-04-15T16:00:49.277Z,5.43
2023-04-15T16:03:17.076Z,5.50
2023-04-15T16:05:47.100Z,5.63
2023-04-15T16:08:16.676Z,5.40
2023-04-15T16:10:45.700Z,5.43
2023-04-15T16:13:13.263Z,5.22
2023-04-15T16:15:40.882Z,4.82
2023-04-15T16:18:08.519Z,5.18
2023-04-15T16:20:36.129Z,5.57
2023-04-15T16:23:07.938Z,5.43
2023-04-15T16:25:35.717Z,5.55
2023-04-15T16:28:11.503Z,5.32
2023-04-15T16:30:43.130Z,5.22
2023-04-15T16:33:14.163Z,4.90
2023-04-15T16:35:41.756Z,5.05
2023-04-15T16:38:23.820Z,5.45
2023-04-15T16:40:52.268Z,5.80
2023-04-15T16:43:22.570Z,5.75
2023-04-15T16:45:53.317Z,4.88
2023-04-15T16:48:21.296Z,5.47
2023-04-15T16:50:48.836Z,6.00
2023-04-15T16:53:17.782Z,5.65
2023-04-15T16:55:45.673Z,6.38
2023-04-15T16:58:14.538Z,6.07
2023-04-15T17:00:42.276Z,9.57
2023-04-15T17:03:14.312Z,7.57
2023-04-15T17:05:42.837Z,6.00
2023-04-15T17:08:10.728Z,5.88
2023-04-15T17:10:42.821Z,6.35
2023-04-15T17:13:10.338Z,6.50
2023-04-15T17:15:38.070Z,6.20
2023-04-15T17:18:05.802Z,6.15
2023-04-15T17:20:36.574Z,6.30
2023-04-15T17:23:04.804Z,5.55
2023-04-15T17:25:32.451Z,6.25
2023-04-15T17:28:02.025Z,6.38
2023-04-15T17:30:36.660Z,7.07
2023-04-15T17:33:56.007Z,6.10
2023-04-15T17:35:52.093Z,6.70
2023-04-15T17:38:19.828Z,7.05
2023-04-15T17:40:48.043Z,7.35
2023-04-15T17:43:17.416Z,7.38
2023-04-15T17:45:46.354Z,7.63
2023-04-15T17:48:14.211Z,7.55
2023-04-15T17:50:44.918Z,7.63
2023-04-15T17:53:18.324Z,8.45
2023-04-15T17:55:47.011Z,8.43
2023-04-15T17:58:14.560Z,8.20
2023-04-15T18:00:46.054Z,8.02
2023-04-15T18:03:13.685Z,8.48
2023-04-15T18:05:42.636Z,7.80
2023-04-15T18:08:10.461Z,8.57
2023-04-15T18:10:53.922Z,8.52
2023-04-15T18:13:21.402Z,8.10
2023-04-15T18:15:51.300Z,8.52
2023-04-15T18:18:18.953Z,9.27
2023-04-15T18:20:46.417Z,9.13
2023-04-15T18:23:14.501Z,8.35
2023-04-15T18:25:43.716Z,8.93
2023-04-15T18:28:11.721Z,8.10
2023-04-15T18:30:39.418Z,9.05
2023-04-15T18:33:08.683Z,8.60
2023-04-15T18:35:44.550Z,11.55
2023-04-15T18:38:12.314Z,8.55
2023-04-15T18:40:40.070Z,8.38
2023-04-15T18:43:09.428Z,9.55
2023-04-15T18:45:37.609Z,9.27
2023-04-15T18:48:06.317Z,8.65
2023-04-15T18:50:35.563Z,8.80
2023-04-15T18:53:03.354Z,8.52
2023-04-15T18:55:31.538Z,8.02
2023-04-15T18:58:06.505Z,8.73
2023-04-15T19:00:40.777Z,7.28
2023-04-15T19:03:09.655Z,8.52
2023-04-15T19:05:38.647Z,7.95
2023-04-15T19:08:06.695Z,8.40
2023-04-15T19:10:34.906Z,9.52
2023-04-15T19:13:03.237Z,8.05
2023-04-15T19:15:31.932Z,7.63
2023-04-15T19:17:59.706Z,7.60
2023-04-15T19:20:27.512Z,8.57
2023-04-15T19:22:56.853Z,7.70
2023-04-15T19:25:26.479Z,8.68
2023-04-15T19:27:53.982Z,8.05
2023-04-15T19:30:23.691Z,8.93
2023-04-15T19:32:51.644Z,8.00
2023-04-15T19:35:19.114Z,7.13
2023-04-15T19:37:48.472Z,7.45
2023-04-15T19:40:20.184Z,7.68
2023-04-15T19:42:47.776Z,8.15
2023-04-15T19:45:15.390Z,7.30
2023-04-15T19:47:43.059Z,7.45
2023-04-15T19:50:11.915Z,8.38
2023-04-15T19:52:39.574Z,7.85
2023-04-15T19:55:07.397Z,8.02
2023-04-15T19:57:36.575Z,7.35
2023-04-15T20:00:04.163Z,7.78
2023-04-15T20:02:31.912Z,8.35
2023-04-15T20:04:59.694Z,7.82
2023-04-15T20:07:27.701Z,7.10
2023-04-15T20:09:55.184Z,8.55
2023-04-15T20:12:49.460Z,7.97
2023-04-15T20:15:12.227Z,8.48
2023-04-15T20:17:40.012Z,8.18
2023-04-15T20:20:08.487Z,7.60
2023-04-15T20:22:36.245Z,8.30
2023-04-15T20:25:05.395Z,8.30
2023-04-15T20:27:32.874Z,8.73
2023-04-15T20:30:00.609Z,8.05
2023-04-15T20:32:31.851Z,8.40
2023-04-15T20:34:59.351Z,8.75
2023-04-15T20:37:27.080Z,9.02
2023-04-15T20:39:54.587Z,8.43
2023-04-15T20:42:22.077Z,9.43
2023-04-15T20:44:49.780Z,8.38
2023-04-15T20:47:18.971Z,8.68
2023-04-15T20:49:47.959Z,8.60
2023-04-15T20:52:21.454Z,9.13
2023-04-15T20:54:50.744Z,10.07
2023-04-15T20:57:32.402Z,9.27
2023-04-15T20:59:59.931Z,8.80
2023-04-15T21:02:27.509Z,9.57
2023-04-15T21:04:59.254Z,7.95
2023-04-15T21:07:26.749Z,9.57
2023-04-15T21:09:55.291Z,10.23
2023-04-15T21:12:22.926Z,9.77
2023-04-15T21:14:50.777Z,9.73
2023-04-15T21:17:18.296Z,10.43
2023-04-15T21:19:45.885Z,9.65
2023-04-15T21:22:14.917Z,9.38
2023-04-15T21:24:42.667Z,10.93
2023-04-15T21:27:13.136Z,10.50
2023-04-15T21:29:41.198Z,10.38
2023-04-15T21:32:08.747Z,10.70
2023-04-15T21:34:36.319Z,10.57
2023-04-15T21:37:04.063Z,11.05
2023-04-15T21:39:33.719Z,10.75
2023-04-15T21:42:01.454Z,11.88
2023-04-15T21:44:29.331Z,11.18
2023-04-15T21:46:56.899Z,12.18
2023-04-15T21:49:25.530Z,11.32
2023-04-15T21:51:53.131Z,11.85
2023-04-15T21:54:20.662Z,11.63
2023-04-15T21:56:50.894Z,11.27
2023-04-15T21:59:18.415Z,12.07
2023-04-15T22:01:46.267Z,12.48
2023-04-15T22:04:14.205Z,12.70
2023-04-15T22:06:41.906Z,12.77
2023-04-15T22:09:11.993Z,11.40
2023-04-15T22:11:41.365Z,12.13
2023-04-15T22:14:10.582Z,11.70
2023-04-15T22:16:38.266Z,11.98
2023-04-15T22:19:06.418Z,11.48
2023-04-15T22:21:34.015Z,10.90
2023-04-15T22:24:38.095Z,13.52
2023-04-15T22:26:49.046Z,13.02
2023-04-15T22:29:17.947Z,14.20
2023-04-15T22:31:45.845Z,12.57
2023-04-15T22:34:14.839Z,13.98
2023-04-15T22:36:42.469Z,12.88
2023-04-15T22:39:09.919Z,14.00
2023-04-15T22:41:37.450Z,15.00
2023-04-15T22:44:04.958Z,13.68
2023-04-15T22:46:33.839Z,14.55
2023-04-15T22:49:01.606Z,14.18
2023-04-15T22:51:29.173Z,12.27
2023-04-15T22:53:56.741Z,14.73
2023-04-15T22:56:24.409Z,14.77
2023-04-15T22:58:52.016Z,15.02
2023-04-15T23:01:20.808Z,14.00
2023-04-15T23:03:56.845Z,12.35
2023-04-15T23:06:33.037Z,14.60
2023-04-15T23:09:01.827Z,15.23
2023-04-15T23:11:29.403Z,15.13
2023-04-15T23:13:59.679Z,14.82
2023-04-15T23:16:27.446Z,14.88
2023-04-15T23:18:56.467Z,14.73
2023-04-15T23:21:25.944Z,15.50
2023-04-15T23:23:53.748Z,14.98
2023-04-15T23:26:21.223Z,14.68
2023-04-15T23:28:48.727Z,16.45
2023-04-15T23:31:16.384Z,17.73
2023-04-15T23:33:44.113Z,16.77
2023-04-15T23:36:12.960Z,16.13
2023-04-15T23:38:40.500Z,18.58
2023-04-15T23:41:08.878Z,17.85
2023-04-15T23:43:36.337Z,17.42
2023-04-15T23:46:03.876Z,16.25
2023-04-15T23:48:34.174Z,16.55
2023-04-15T23:51:01.719Z,19.13
2023-04-15T23:53:30.937Z,17.48
2023-04-15T23:55:58.412Z,18.38
2023-04-15T23:58:26.053Z,16.45
